Terminal Aerodrome Forecast
Issued by NWS Northern Indiana

Home | Current Version | Previous Version | Graphics & Text | Print | Product List | Glossary On
Versions: 1 2 3 4 5 6 7 8 9 10 11 12 13
000
FTUS43 KIWX 271130
TAFFWA
TAF
KFWA 271130Z 2712/2812 06004KT P6SM BKN070
     FM271400 09009KT P6SM FEW050 SCT150
     FM280000 09004KT P6SM FEW250=

USA.gov is the U.S. government's official web portal to all federal, state and local government web resources and services.